Terminal Aerodrome Forecast
Issued by NWS

Home | Current Version | Previous Version | Text Only | Print | Product List | Glossary On
Versions: 1 2 3 4 5 6 7 8 9 10 11 12 13 14 15 16 17 18 19 20 21 22
104
FTUS43 KJKL 211724
TAFSME
TAF
KSME 211724Z 2118/2218 19005KT P6SM BKN130
     FM212300 18005KT P6SM BKN200
     FM220600 12004KT P6SM SCT035 OVC130
     FM221200 12005KT 5SM -SHRA VCTS BKN005 OVC035CB
     FM221600 17005KT P6SM VCTS BKN025CB=

USA.gov is the U.S. government's official web portal to all federal, state and local government web resources and services.